createdAt,value
2023-04-30T00:00:04.880Z,19.00
2023-04-30T00:01:04.916Z,18.90
2023-04-30T00:02:04.926Z,20.00
2023-04-30T00:03:05.050Z,21.10
2023-04-30T00:04:04.973Z,22.30
2023-04-30T00:05:04.876Z,23.50
2023-04-30T00:06:04.899Z,24.70
2023-04-30T00:07:04.843Z,24.50
2023-04-30T00:08:04.807Z,26.10
2023-04-30T00:09:04.887Z,23.50
2023-04-30T00:10:04.774Z,21.80
2023-04-30T00:11:04.807Z,21.30
2023-04-30T00:12:04.754Z,20.90
2023-04-30T00:13:04.774Z,21.80
2023-04-30T00:14:04.757Z,21.40
2023-04-30T00:15:04.744Z,22.70
2023-04-30T00:16:04.826Z,22.90
2023-04-30T00:17:04.726Z,23.80
2023-04-30T00:18:04.776Z,22.60
2023-04-30T00:19:04.702Z,23.30
2023-04-30T00:20:04.699Z,25.00
2023-04-30T00:21:04.705Z,24.50
2023-04-30T00:22:04.675Z,25.10
2023-04-30T00:23:04.652Z,25.80
2023-04-30T00:24:04.660Z,24.90
2023-04-30T00:25:04.646Z,26.20
2023-04-30T00:26:04.700Z,26.30
2023-04-30T00:27:04.641Z,26.10
2023-04-30T00:28:04.600Z,27.80
2023-04-30T00:29:04.607Z,27.10
2023-04-30T00:30:04.601Z,27.70
2023-04-30T00:31:04.628Z,27.90
2023-04-30T00:32:04.641Z,28.00
2023-04-30T00:33:04.609Z,26.90
2023-04-30T00:34:04.602Z,29.00
2023-04-30T00:35:04.536Z,28.50
2023-04-30T00:36:04.606Z,28.70
2023-04-30T00:37:04.527Z,28.50
2023-04-30T00:38:04.562Z,28.80
2023-04-30T00:39:04.517Z,29.20
2023-04-30T00:40:04.489Z,28.90
2023-04-30T00:41:04.532Z,29.50
2023-04-30T00:42:04.481Z,29.10
2023-04-30T00:43:04.468Z,29.10
2023-04-30T00:44:04.486Z,31.90
2023-04-30T00:45:04.459Z,32.50
2023-04-30T00:46:04.505Z,30.80
2023-04-30T00:47:04.408Z,34.00
2023-04-30T00:48:04.456Z,33.40
2023-04-30T00:49:04.428Z,32.70
2023-04-30T00:50:04.389Z,32.60
2023-04-30T00:51:04.411Z,32.70
2023-04-30T00:52:04.366Z,32.40
2023-04-30T00:53:04.358Z,31.80
2023-04-30T00:54:04.364Z,30.60
2023-04-30T00:55:04.380Z,31.20
2023-04-30T00:56:04.363Z,29.90
2023-04-30T00:57:04.311Z,29.80
2023-04-30T00:58:04.318Z,30.00
2023-04-30T00:59:04.308Z,31.20
2023-04-30T01:00:04.283Z,30.60
2023-04-30T01:01:04.416Z,30.30
2023-04-30T01:02:04.405Z,30.60
2023-04-30T01:03:04.374Z,31.80
2023-04-30T01:04:04.290Z,30.80
2023-04-30T01:05:04.231Z,31.30
2023-04-30T01:06:04.308Z,30.00
2023-04-30T01:07:04.222Z,30.40
2023-04-30T01:08:04.200Z,30.80
2023-04-30T01:09:04.203Z,31.50
2023-04-30T01:10:04.188Z,30.90
2023-04-30T01:11:04.298Z,30.20
2023-04-30T01:12:04.181Z,30.90
2023-04-30T01:13:04.202Z,31.90
2023-04-30T01:14:04.154Z,30.90
2023-04-30T01:15:04.128Z,30.60
2023-04-30T01:16:04.202Z,30.60
2023-04-30T01:17:04.144Z,30.60
2023-04-30T01:18:04.208Z,31.40
2023-04-30T01:19:04.186Z,31.40
2023-04-30T01:20:04.109Z,31.10
2023-04-30T01:21:04.124Z,33.00
2023-04-30T01:22:04.079Z,32.20
2023-04-30T01:23:04.117Z,32.80
2023-04-30T01:24:04.048Z,33.00
2023-04-30T01:25:04.032Z,32.40
2023-04-30T01:26:04.056Z,31.20
2023-04-30T01:27:04.012Z,32.40
2023-04-30T01:28:04.026Z,31.50
2023-04-30T01:29:04.005Z,32.30
2023-04-30T01:30:03.987Z,30.70
2023-04-30T01:31:04.085Z,30.80
2023-04-30T01:32:03.986Z,32.40
2023-04-30T01:33:03.976Z,30.90
2023-04-30T01:34:03.959Z,32.70
2023-04-30T01:35:03.930Z,31.00
2023-04-30T01:36:03.960Z,31.60
2023-04-30T01:37:03.919Z,32.60
2023-04-30T01:38:03.912Z,31.70
2023-04-30T01:39:03.944Z,31.60
2023-04-30T01:40:03.898Z,32.20
2023-04-30T01:41:03.862Z,29.90
2023-04-30T01:42:03.936Z,31.90
2023-04-30T01:43:03.852Z,31.20
2023-04-30T01:44:03.858Z,32.30
2023-04-30T01:45:03.813Z,31.60
2023-04-30T01:46:03.868Z,31.40
2023-04-30T01:47:03.868Z,32.70
2023-04-30T01:48:03.834Z,33.40
2023-04-30T01:49:03.805Z,31.40
2023-04-30T01:50:03.798Z,30.40
2023-04-30T01:51:03.772Z,31.30
2023-04-30T01:52:03.886Z,31.50
2023-04-30T01:53:03.751Z,33.00
2023-04-30T01:54:03.772Z,31.80
2023-04-30T01:55:03.720Z,32.70
2023-04-30T01:56:03.747Z,32.20
2023-04-30T01:57:03.735Z,32.50
2023-04-30T01:58:03.714Z,32.40
2023-04-30T01:59:03.749Z,31.50
2023-04-30T02:00:03.715Z,30.90
2023-04-30T02:01:03.690Z,30.80
2023-04-30T02:02:03.688Z,30.50
2023-04-30T02:03:03.690Z,32.00
2023-04-30T02:04:03.727Z,31.70
2023-04-30T02:05:03.635Z,33.10
2023-04-30T02:06:03.641Z,32.10
2023-04-30T02:07:03.641Z,30.70
2023-04-30T02:08:03.617Z,31.60
2023-04-30T02:09:03.654Z,30.60
2023-04-30T02:10:03.600Z,31.40
2023-04-30T02:11:03.556Z,32.30
2023-04-30T02:12:03.634Z,31.70
2023-04-30T02:13:03.539Z,31.90
2023-04-30T02:14:03.568Z,31.20
2023-04-30T02:15:03.536Z,31.30
2023-04-30T02:16:03.566Z,31.90
2023-04-30T02:17:03.526Z,31.20
2023-04-30T02:18:03.534Z,29.90
2023-04-30T02:19:03.541Z,31.10
2023-04-30T02:20:03.550Z,31.10
2023-04-30T02:21:03.475Z,32.00
2023-04-30T02:22:03.498Z,32.90
2023-04-30T02:23:03.460Z,32.10
2023-04-30T02:24:03.485Z,31.70
2023-04-30T02:25:03.459Z,33.20
2023-04-30T02:26:03.424Z,33.70
2023-04-30T02:27:03.436Z,33.70
2023-04-30T02:28:03.402Z,35.00
2023-04-30T02:29:03.410Z,33.40
2023-04-30T02:30:03.400Z,32.50
2023-04-30T02:31:03.359Z,32.10
2023-04-30T02:32:03.402Z,31.80
2023-04-30T02:33:03.405Z,32.30
2023-04-30T02:34:03.387Z,32.40
2023-04-30T02:35:03.320Z,31.10
2023-04-30T02:36:03.342Z,33.10
2023-04-30T02:37:03.342Z,35.30
2023-04-30T02:38:03.287Z,35.10
2023-04-30T02:39:03.337Z,36.00
2023-04-30T02:40:03.320Z,36.00
2023-04-30T02:41:03.283Z,33.00
2023-04-30T02:42:03.286Z,35.80
2023-04-30T02:43:03.296Z,33.00
2023-04-30T02:44:03.252Z,34.60
2023-04-30T02:45:03.216Z,34.90
2023-04-30T02:46:03.250Z,36.90
2023-04-30T02:47:03.203Z,37.00
2023-04-30T02:48:03.341Z,33.90
2023-04-30T02:49:03.192Z,32.20
2023-04-30T02:50:03.190Z,30.50
2023-04-30T02:51:03.166Z,31.30
2023-04-30T02:52:03.199Z,30.40
2023-04-30T02:53:03.194Z,31.70
2023-04-30T02:54:03.142Z,32.00
2023-04-30T02:55:03.123Z,32.70
2023-04-30T02:56:03.119Z,33.70
2023-04-30T02:57:03.155Z,34.70
2023-04-30T02:58:03.138Z,34.80
2023-04-30T02:59:03.089Z,33.60
2023-04-30T03:00:03.104Z,31.60
2023-04-30T03:01:03.141Z,32.20
2023-04-30T03:02:03.104Z,32.50
2023-04-30T03:03:03.141Z,30.80
2023-04-30T03:04:03.047Z,32.20
2023-04-30T03:05:03.017Z,33.10
2023-04-30T03:06:03.087Z,33.70
2023-04-30T03:07:03.057Z,33.60
2023-04-30T03:08:02.990Z,34.70
2023-04-30T03:09:03.017Z,32.90
2023-04-30T03:10:02.996Z,35.70
2023-04-30T03:11:02.987Z,35.60
2023-04-30T03:12:03.007Z,34.40
2023-04-30T03:13:02.941Z,33.50
2023-04-30T03:14:02.956Z,33.30
2023-04-30T03:15:02.963Z,33.60
2023-04-30T03:16:02.941Z,33.60
2023-04-30T03:17:02.907Z,35.00
2023-04-30T03:18:02.972Z,36.00
2023-04-30T03:19:02.851Z,38.50
2023-04-30T03:20:02.813Z,38.80
2023-04-30T03:21:02.829Z,38.40
2023-04-30T03:22:02.848Z,38.60
2023-04-30T03:23:02.812Z,38.60
2023-04-30T03:24:02.801Z,36.90
2023-04-30T03:25:02.770Z,36.70
2023-04-30T03:26:02.830Z,36.00
2023-04-30T03:27:02.765Z,35.70
2023-04-30T03:28:02.833Z,34.20
2023-04-30T03:29:02.757Z,33.20
2023-04-30T03:30:02.749Z,33.80
2023-04-30T03:31:02.739Z,33.20
2023-04-30T03:32:02.821Z,32.00
2023-04-30T03:33:02.831Z,32.30
2023-04-30T03:34:02.724Z,32.00
2023-04-30T03:35:02.688Z,32.70
2023-04-30T03:36:02.666Z,31.90
2023-04-30T03:37:02.658Z,31.80
2023-04-30T03:38:02.673Z,33.10
2023-04-30T03:39:02.689Z,31.80
2023-04-30T03:40:02.625Z,32.50
2023-04-30T03:41:02.651Z,31.70
2023-04-30T03:42:02.608Z,32.60
2023-04-30T03:43:02.631Z,33.40
2023-04-30T03:44:02.605Z,34.10
2023-04-30T03:45:02.560Z,34.50
2023-04-30T03:46:02.613Z,32.90
2023-04-30T03:47:02.582Z,34.10
2023-04-30T03:48:02.563Z,34.50
2023-04-30T03:49:02.570Z,33.40
2023-04-30T03:50:02.562Z,34.20
2023-04-30T03:51:02.509Z,35.90
2023-04-30T03:52:02.506Z,35.60
2023-04-30T03:53:02.535Z,34.90
2023-04-30T03:54:02.519Z,33.10
2023-04-30T03:55:02.473Z,32.60
2023-04-30T03:56:02.481Z,32.30
2023-04-30T03:57:02.460Z,32.00
2023-04-30T03:58:02.501Z,32.10
2023-04-30T03:59:02.456Z,34.60
2023-04-30T04:00:02.452Z,33.70
2023-04-30T04:01:02.422Z,33.60
2023-04-30T04:02:02.538Z,33.00
2023-04-30T04:03:02.449Z,33.30
2023-04-30T04:04:02.506Z,35.50
2023-04-30T04:05:02.414Z,34.40
2023-04-30T04:06:02.408Z,35.40
2023-04-30T04:07:02.366Z,34.90
2023-04-30T04:08:02.383Z,35.10
2023-04-30T04:09:02.363Z,33.40
2023-04-30T04:10:02.340Z,33.70
2023-04-30T04:11:02.356Z,34.40
2023-04-30T04:12:02.327Z,33.10
2023-04-30T04:13:02.352Z,34.90
2023-04-30T04:14:02.334Z,35.30
2023-04-30T04:15:02.368Z,35.60
2023-04-30T04:16:02.352Z,36.90
2023-04-30T04:17:02.281Z,38.60
2023-04-30T04:18:02.377Z,39.40
2023-04-30T04:19:02.254Z,38.80
2023-04-30T04:20:02.255Z,36.80
2023-04-30T04:21:02.256Z,34.70
2023-04-30T04:22:02.218Z,34.00
2023-04-30T04:23:02.229Z,34.50
2023-04-30T04:24:02.203Z,34.60
2023-04-30T04:25:02.180Z,36.00
2023-04-30T04:26:02.187Z,36.30
2023-04-30T04:27:02.161Z,38.20
2023-04-30T04:28:02.203Z,35.30
2023-04-30T04:29:02.191Z,33.60
2023-04-30T04:30:02.131Z,34.50
2023-04-30T04:31:02.133Z,36.60
2023-04-30T04:32:02.217Z,35.70
2023-04-30T04:33:02.196Z,32.00
2023-04-30T04:34:02.133Z,33.40
2023-04-30T04:35:02.089Z,32.00
2023-04-30T04:36:02.067Z,32.20
2023-04-30T04:37:02.066Z,33.30
2023-04-30T04:38:02.065Z,32.80
2023-04-30T04:39:02.365Z,29.10
2023-04-30T04:40:02.112Z,24.30
2023-04-30T04:41:02.045Z,22.50
2023-04-30T04:42:02.033Z,20.80
2023-04-30T04:43:02.012Z,18.30
2023-04-30T04:44:02.081Z,17.30
2023-04-30T04:45:01.978Z,17.90
2023-04-30T04:46:02.041Z,16.30
2023-04-30T04:47:01.965Z,14.60
2023-04-30T04:48:02.133Z,14.30
2023-04-30T04:49:01.998Z,14.00
2023-04-30T04:50:01.961Z,13.60
2023-04-30T04:51:01.938Z,13.70
2023-04-30T04:52:01.934Z,13.60
2023-04-30T04:53:01.904Z,13.00
2023-04-30T04:54:01.950Z,13.40
2023-04-30T04:55:01.883Z,13.30
2023-04-30T04:56:01.883Z,14.40
2023-04-30T04:57:01.868Z,13.70
2023-04-30T04:58:01.851Z,14.50
2023-04-30T04:59:01.884Z,15.00
2023-04-30T05:00:01.821Z,15.00
2023-04-30T05:01:01.833Z,15.40
2023-04-30T05:02:01.953Z,15.70
2023-04-30T05:03:01.888Z,16.40
2023-04-30T05:04:01.935Z,16.00
2023-04-30T05:05:01.780Z,15.60
2023-04-30T05:06:01.843Z,16.60
2023-04-30T05:07:01.866Z,16.00
2023-04-30T05:08:01.763Z,15.20
2023-04-30T05:09:01.785Z,14.10
2023-04-30T05:10:01.732Z,13.60
2023-04-30T05:11:01.727Z,12.20
2023-04-30T05:12:01.732Z,11.10
2023-04-30T05:13:01.711Z,10.70
2023-04-30T05:14:01.732Z,10.40
2023-04-30T05:15:01.687Z,11.00
2023-04-30T05:16:01.693Z,10.70
2023-04-30T05:17:01.724Z,10.30
2023-04-30T05:18:01.717Z,9.80
2023-04-30T05:19:01.697Z,9.20
2023-04-30T05:20:01.614Z,9.20
2023-04-30T05:21:01.620Z,9.10
2023-04-30T05:22:01.596Z,9.40
2023-04-30T05:23:01.609Z,8.90
2023-04-30T05:24:01.618Z,8.50
2023-04-30T05:25:01.573Z,8.40
2023-04-30T05:26:01.561Z,8.80
2023-04-30T05:27:01.561Z,9.20
2023-04-30T05:28:01.562Z,8.30
2023-04-30T05:29:01.568Z,8.60
2023-04-30T05:30:01.536Z,8.10
2023-04-30T05:31:01.528Z,8.00
2023-04-30T05:32:01.582Z,8.20
2023-04-30T05:33:01.547Z,7.90
2023-04-30T05:34:01.514Z,7.80
2023-04-30T05:35:01.475Z,8.40
2023-04-30T05:36:01.521Z,7.90
2023-04-30T05:37:01.483Z,8.10
2023-04-30T05:38:01.431Z,7.10
2023-04-30T05:39:01.517Z,7.20
2023-04-30T05:40:01.408Z,7.80
2023-04-30T05:41:01.446Z,6.70
2023-04-30T05:42:01.401Z,6.90
2023-04-30T05:43:01.409Z,6.70
2023-04-30T05:44:01.633Z,6.60
2023-04-30T05:45:01.377Z,6.10
2023-04-30T05:46:01.527Z,6.10
2023-04-30T05:47:01.364Z,5.60
2023-04-30T05:48:01.415Z,5.70
2023-04-30T05:49:01.362Z,5.40
2023-04-30T05:50:01.322Z,5.10
2023-04-30T05:51:01.338Z,4.80
2023-04-30T05:52:01.298Z,4.80
2023-04-30T05:53:01.286Z,5.00
2023-04-30T05:54:01.309Z,4.60
2023-04-30T05:55:01.304Z,4.40
2023-04-30T05:56:01.278Z,4.70
2023-04-30T05:57:01.256Z,4.80
2023-04-30T05:58:01.235Z,4.60
2023-04-30T05:59:01.277Z,5.10
2023-04-30T06:00:01.211Z,4.80
2023-04-30T06:01:01.219Z,4.60
2023-04-30T06:02:01.246Z,4.50
2023-04-30T06:03:01.190Z,4.40
2023-04-30T06:04:01.211Z,4.30
2023-04-30T06:05:01.190Z,4.20
2023-04-30T06:06:01.197Z,4.30
2023-04-30T06:07:01.141Z,4.50
2023-04-30T06:08:01.156Z,4.10
2023-04-30T06:09:01.164Z,4.60
2023-04-30T06:10:01.108Z,4.70
2023-04-30T06:11:01.117Z,4.40
2023-04-30T06:12:01.089Z,4.20
2023-04-30T06:13:01.085Z,4.30
2023-04-30T06:14:01.155Z,4.40
2023-04-30T06:15:01.061Z,3.90
2023-04-30T06:16:01.052Z,4.00
2023-04-30T06:17:01.156Z,4.00
2023-04-30T06:18:01.075Z,3.90
2023-04-30T06:19:01.074Z,3.90
2023-04-30T06:20:01.044Z,3.90
2023-04-30T06:21:01.018Z,3.80
2023-04-30T06:22:01.010Z,3.80
2023-04-30T06:23:01.117Z,4.00
2023-04-30T06:24:01.027Z,3.60
2023-04-30T06:25:01.007Z,3.80
2023-04-30T06:26:00.957Z,3.90
2023-04-30T06:27:00.983Z,3.60
2023-04-30T06:28:00.943Z,3.30
2023-04-30T06:29:01.001Z,3.70
2023-04-30T06:30:01.096Z,3.20
2023-04-30T06:31:00.935Z,3.30
2023-04-30T06:32:00.921Z,3.40
2023-04-30T06:33:00.923Z,3.10
2023-04-30T06:34:00.919Z,3.60
2023-04-30T06:35:00.863Z,3.50
2023-04-30T06:36:00.895Z,3.60
2023-04-30T06:37:01.060Z,3.60
2023-04-30T06:38:00.866Z,3.30
2023-04-30T06:39:00.854Z,3.60
2023-04-30T06:40:00.821Z,3.50
2023-04-30T06:41:00.830Z,3.10
2023-04-30T06:42:00.789Z,3.20
2023-04-30T06:43:00.825Z,3.10
2023-04-30T06:44:00.795Z,3.00
2023-04-30T06:45:00.747Z,3.30
2023-04-30T06:46:00.790Z,3.10
2023-04-30T06:47:00.751Z,3.20
2023-04-30T06:48:00.785Z,3.50
2023-04-30T06:49:00.769Z,3.40
2023-04-30T06:50:00.716Z,3.40
2023-04-30T06:51:00.700Z,3.00
2023-04-30T06:52:00.806Z,2.80
2023-04-30T06:53:00.680Z,3.30
2023-04-30T06:54:00.757Z,3.10
2023-04-30T06:55:01.249Z,3.00
2023-04-30T06:56:00.652Z,3.30
2023-04-30T06:57:00.653Z,3.20
2023-04-30T06:58:00.759Z,3.10
2023-04-30T06:59:00.706Z,3.50
2023-04-30T07:00:00.606Z,3.30
2023-04-30T07:01:00.816Z,3.60
2023-04-30T07:02:00.763Z,3.00
2023-04-30T07:03:00.622Z,3.40
2023-04-30T07:04:00.618Z,3.00
2023-04-30T07:05:00.588Z,2.80
2023-04-30T07:06:00.565Z,3.20
2023-04-30T07:07:00.558Z,3.00
2023-04-30T07:08:00.509Z,3.20
2023-04-30T07:09:00.596Z,2.70
2023-04-30T07:10:00.517Z,2.70
2023-04-30T07:11:00.495Z,2.80
2023-04-30T07:12:00.490Z,3.30
2023-04-30T07:13:00.519Z,3.40
2023-04-30T07:14:00.505Z,2.90
2023-04-30T07:15:00.476Z,3.10
2023-04-30T07:16:00.484Z,2.70
2023-04-30T07:17:03.392Z,3.00
2023-04-30T07:18:00.459Z,3.10
2023-04-30T07:19:02.328Z,3.00
2023-04-30T07:20:00.517Z,3.00
2023-04-30T07:21:00.419Z,3.20
2023-04-30T07:22:00.441Z,3.30
2023-04-30T07:23:00.390Z,2.70
2023-04-30T07:24:00.587Z,3.00
2023-04-30T07:25:00.345Z,3.10
2023-04-30T07:26:00.344Z,2.90
2023-04-30T07:27:00.322Z,3.10
2023-04-30T07:28:00.340Z,3.40
2023-04-30T07:29:00.329Z,2.90
2023-04-30T07:30:00.303Z,3.20
2023-04-30T07:31:00.290Z,3.20
2023-04-30T07:32:00.338Z,2.90
2023-04-30T07:33:00.280Z,3.10
2023-04-30T07:34:00.270Z,2.70
2023-04-30T07:35:00.235Z,3.40
2023-04-30T07:36:01.246Z,3.10
2023-04-30T07:37:00.228Z,3.30
2023-04-30T07:38:00.361Z,3.00
2023-04-30T07:39:00.233Z,3.00
2023-04-30T07:40:00.214Z,3.10
2023-04-30T07:41:00.192Z,3.10
2023-04-30T07:42:00.156Z,2.90
2023-04-30T07:43:00.193Z,3.20
2023-04-30T07:44:00.193Z,2.90
2023-04-30T07:45:00.164Z,3.10
2023-04-30T07:46:00.207Z,3.70
2023-04-30T07:47:01.160Z,3.30
2023-04-30T07:48:00.187Z,3.20
2023-04-30T07:49:00.308Z,3.00
2023-04-30T07:50:00.194Z,3.10
2023-04-30T07:51:00.070Z,3.00
2023-04-30T07:52:00.066Z,2.90
2023-04-30T07:53:00.329Z,2.60
2023-04-30T07:54:00.133Z,3.00
2023-04-30T07:55:00.480Z,2.80
2023-04-30T07:57:13.344Z,2.90
2023-04-30T07:58:14.221Z,3.00
2023-04-30T07:59:14.892Z,3.20
2023-04-30T08:00:13.998Z,3.10
2023-04-30T08:01:20.704Z,2.90
2023-04-30T08:02:14.846Z,2.90
2023-04-30T08:03:14.208Z,3.10
2023-04-30T08:04:14.069Z,3.10
2023-04-30T08:05:13.963Z,3.00
2023-04-30T08:06:14.101Z,3.00
2023-04-30T08:07:13.951Z,3.40
2023-04-30T08:08:13.974Z,3.20
2023-04-30T08:09:13.910Z,3.00
2023-04-30T08:10:13.912Z,3.20
2023-04-30T08:11:13.909Z,3.00
2023-04-30T08:12:13.892Z,3.40
2023-04-30T08:13:13.878Z,2.90
2023-04-30T08:14:13.879Z,3.00
2023-04-30T08:15:13.846Z,3.10
2023-04-30T08:16:13.863Z,3.20
2023-04-30T08:17:13.877Z,3.10
2023-04-30T08:18:13.893Z,3.00
2023-04-30T08:19:13.820Z,3.10
2023-04-30T08:20:13.848Z,3.10
2023-04-30T08:21:13.791Z,3.30
2023-04-30T08:22:13.812Z,3.00
2023-04-30T08:23:13.798Z,3.20
2023-04-30T08:24:13.811Z,2.80
2023-04-30T08:25:13.785Z,3.50
2023-04-30T08:26:13.800Z,3.30
2023-04-30T08:27:13.718Z,3.20
2023-04-30T08:28:13.737Z,2.90
2023-04-30T08:29:13.748Z,3.10
2023-04-30T08:30:13.734Z,3.10
2023-04-30T08:31:13.718Z,3.00
2023-04-30T08:32:13.746Z,3.00
2023-04-30T08:33:13.748Z,3.10
2023-04-30T08:34:13.656Z,3.20
2023-04-30T08:35:13.639Z,3.10
2023-04-30T08:36:13.720Z,3.10
2023-04-30T08:37:13.625Z,2.80
2023-04-30T08:38:13.639Z,3.00
2023-04-30T08:39:13.610Z,3.10
2023-04-30T08:40:13.648Z,3.20
2023-04-30T08:41:13.582Z,3.50
2023-04-30T08:42:13.570Z,3.00
2023-04-30T08:43:13.580Z,3.10
2023-04-30T08:44:13.602Z,2.80
2023-04-30T08:45:13.530Z,3.00
2023-04-30T08:46:13.606Z,2.50
2023-04-30T08:47:13.572Z,2.90
2023-04-30T08:48:13.528Z,2.80
2023-04-30T08:49:13.523Z,3.10
2023-04-30T08:50:13.493Z,3.00
2023-04-30T08:51:13.485Z,2.70
2023-04-30T08:52:13.503Z,3.10
2023-04-30T08:53:13.522Z,3.00
2023-04-30T08:54:13.460Z,2.80
2023-04-30T08:55:13.485Z,3.20
2023-04-30T08:56:13.437Z,2.80
2023-04-30T08:57:13.425Z,2.70
2023-04-30T08:58:13.446Z,2.70
2023-04-30T08:59:13.424Z,2.90
2023-04-30T09:00:13.424Z,2.80
2023-04-30T09:01:13.428Z,2.90
2023-04-30T09:02:13.402Z,2.80
2023-04-30T09:03:13.436Z,3.00
2023-04-30T09:04:13.722Z,2.90
2023-04-30T09:05:13.425Z,2.80
2023-04-30T09:06:13.385Z,3.00
2023-04-30T09:07:13.334Z,3.10
2023-04-30T09:08:13.373Z,2.90
2023-04-30T09:09:13.310Z,2.90
2023-04-30T09:10:13.320Z,2.80
2023-04-30T09:11:13.290Z,2.90
2023-04-30T09:12:13.306Z,3.10
2023-04-30T09:13:13.297Z,3.00
2023-04-30T09:14:13.312Z,3.30
2023-04-30T09:15:13.264Z,2.70
2023-04-30T09:16:13.275Z,3.10
2023-04-30T09:17:13.281Z,2.90
2023-04-30T09:18:13.292Z,2.90
2023-04-30T09:19:13.345Z,2.90
2023-04-30T09:20:13.353Z,3.20
2023-04-30T09:21:13.242Z,2.70
2023-04-30T09:22:13.368Z,2.40
2023-04-30T09:23:13.184Z,2.90
2023-04-30T09:24:13.208Z,2.70
2023-04-30T09:25:13.156Z,2.60
2023-04-30T09:26:13.179Z,2.80
2023-04-30T09:27:13.135Z,2.60
2023-04-30T09:28:13.269Z,3.00
2023-04-30T09:29:13.141Z,2.50
2023-04-30T09:30:13.111Z,2.80
2023-04-30T09:31:13.136Z,2.90
2023-04-30T09:32:13.101Z,2.60
2023-04-30T09:33:13.175Z,2.80
2023-04-30T09:34:13.168Z,2.90
2023-04-30T09:35:13.145Z,2.70
2023-04-30T09:36:13.063Z,2.50
2023-04-30T09:37:13.052Z,2.70
2023-04-30T09:38:13.187Z,2.50
2023-04-30T09:39:15.307Z,2.80
2023-04-30T09:40:13.022Z,2.70
2023-04-30T09:41:13.060Z,2.80
2023-04-30T09:42:13.024Z,2.50
2023-04-30T09:43:13.019Z,2.80
2023-04-30T09:44:13.009Z,2.50
2023-04-30T09:45:12.988Z,2.70
2023-04-30T09:46:13.049Z,2.90
2023-04-30T09:47:13.067Z,2.40
2023-04-30T09:48:17.490Z,2.60
2023-04-30T09:49:13.427Z,2.60
2023-04-30T09:50:13.018Z,2.40
2023-04-30T09:51:13.035Z,2.80
2023-04-30T09:52:12.963Z,2.50
2023-04-30T09:53:13.083Z,2.60
2023-04-30T09:54:13.000Z,2.40
2023-04-30T09:55:13.156Z,2.50
2023-04-30T09:56:13.032Z,2.60
2023-04-30T09:57:13.031Z,2.30
2023-04-30T09:58:14.617Z,2.20
2023-04-30T09:59:14.137Z,2.20
2023-04-30T10:00:19.269Z,2.50
2023-04-30T10:01:13.051Z,2.50
2023-04-30T10:02:12.987Z,2.30
2023-04-30T10:03:12.902Z,2.70
2023-04-30T10:04:12.927Z,2.50
2023-04-30T10:05:12.840Z,2.50
2023-04-30T10:06:12.867Z,2.80
2023-04-30T10:07:15.397Z,2.80
2023-04-30T10:08:12.868Z,2.40
2023-04-30T10:09:12.805Z,2.50
2023-04-30T10:10:12.778Z,2.40
2023-04-30T10:11:12.768Z,2.60
2023-04-30T10:12:12.764Z,2.60
2023-04-30T10:13:12.775Z,2.40
2023-04-30T10:14:12.737Z,2.60
2023-04-30T10:15:12.712Z,2.60
2023-04-30T10:16:12.778Z,2.60
2023-04-30T10:17:12.749Z,2.80
2023-04-30T10:18:12.857Z,2.70
2023-04-30T10:19:12.735Z,2.80
2023-04-30T10:20:12.696Z,2.60
2023-04-30T10:21:12.831Z,2.40
2023-04-30T10:22:12.691Z,2.80
2023-04-30T10:23:12.677Z,2.60
2023-04-30T10:24:12.656Z,2.50
2023-04-30T10:25:12.673Z,2.40
2023-04-30T10:26:12.666Z,2.60
2023-04-30T10:27:12.620Z,2.60
2023-04-30T10:28:12.623Z,2.50
2023-04-30T10:29:12.612Z,2.60
2023-04-30T10:30:12.593Z,2.60
2023-04-30T10:31:12.571Z,2.60
2023-04-30T10:32:12.653Z,2.80
2023-04-30T10:33:15.696Z,2.90
2023-04-30T10:34:12.572Z,2.80
2023-04-30T10:35:12.527Z,2.60
2023-04-30T10:36:12.563Z,2.40
2023-04-30T10:37:12.568Z,2.50
2023-04-30T10:38:12.536Z,2.70
2023-04-30T10:39:12.802Z,2.40
2023-04-30T10:40:12.522Z,2.80
2023-04-30T10:41:12.507Z,2.60
2023-04-30T10:42:12.509Z,2.50
2023-04-30T10:43:12.470Z,2.70
2023-04-30T10:44:12.501Z,2.50
2023-04-30T10:45:12.499Z,2.70
2023-04-30T10:46:12.497Z,2.70
2023-04-30T10:47:12.434Z,2.50
2023-04-30T10:48:12.440Z,2.60
2023-04-30T10:49:12.525Z,2.40
2023-04-30T10:50:12.432Z,2.60
2023-04-30T10:51:12.431Z,2.50
2023-04-30T10:52:12.391Z,2.80
2023-04-30T10:53:12.377Z,2.50
2023-04-30T10:54:12.392Z,2.50
2023-04-30T10:55:12.350Z,2.50
2023-04-30T10:56:12.399Z,2.60
2023-04-30T10:57:12.328Z,2.60
2023-04-30T10:58:12.352Z,2.50
2023-04-30T10:59:12.924Z,2.50
2023-04-30T11:00:12.409Z,2.40
2023-04-30T11:01:12.394Z,2.90
2023-04-30T11:02:12.316Z,2.90
2023-04-30T11:03:12.439Z,2.60
2023-04-30T11:04:12.312Z,2.60
2023-04-30T11:05:12.403Z,2.70
2023-04-30T11:06:12.266Z,2.60
2023-04-30T11:07:12.253Z,2.60
2023-04-30T11:08:12.225Z,2.70
2023-04-30T11:09:12.309Z,2.50
2023-04-30T11:10:12.274Z,2.50
2023-04-30T11:11:12.241Z,2.40
2023-04-30T11:12:12.315Z,2.70
2023-04-30T11:13:12.189Z,2.30
2023-04-30T11:14:12.492Z,2.90
2023-04-30T11:15:12.831Z,2.40
2023-04-30T11:16:12.370Z,2.20
2023-04-30T11:17:12.160Z,2.30
2023-04-30T11:18:13.720Z,2.60
2023-04-30T11:19:12.211Z,2.60
2023-04-30T11:20:12.402Z,2.70
2023-04-30T11:21:12.148Z,2.60
2023-04-30T11:22:12.140Z,2.70
2023-04-30T11:23:14.247Z,2.70
2023-04-30T11:24:12.137Z,2.50
2023-04-30T11:25:12.126Z,2.30
2023-04-30T11:26:12.816Z,2.40
2023-04-30T11:27:12.931Z,2.50
2023-04-30T11:28:12.058Z,2.40
2023-04-30T11:29:12.100Z,2.50
2023-04-30T11:30:12.065Z,2.50
2023-04-30T11:31:14.119Z,2.30
2023-04-30T11:32:12.073Z,2.40
2023-04-30T11:33:12.085Z,2.80
2023-04-30T11:34:12.138Z,2.50
2023-04-30T11:35:12.044Z,2.70
2023-04-30T11:36:12.037Z,2.60
2023-04-30T11:37:11.978Z,2.30
2023-04-30T11:38:12.053Z,2.30
2023-04-30T11:39:12.025Z,2.20
2023-04-30T11:40:12.068Z,2.50
2023-04-30T11:41:11.934Z,2.20
2023-04-30T11:42:11.937Z,2.20
2023-04-30T11:43:11.971Z,2.20
2023-04-30T11:44:11.964Z,2.30
2023-04-30T11:45:11.927Z,2.40
2023-04-30T11:46:12.013Z,2.20
2023-04-30T11:47:11.885Z,2.40
2023-04-30T11:48:12.080Z,2.60
2023-04-30T11:49:11.924Z,2.10
2023-04-30T11:50:11.943Z,2.80
2023-04-30T11:51:11.876Z,2.30
2023-04-30T11:52:11.846Z,2.60
2023-04-30T11:53:11.879Z,3.00
2023-04-30T11:54:11.839Z,2.70
2023-04-30T11:55:11.823Z,2.70
2023-04-30T11:56:11.821Z,3.00
2023-04-30T11:57:11.856Z,2.60
2023-04-30T11:58:11.968Z,2.90
2023-04-30T11:59:11.797Z,2.60
2023-04-30T12:00:11.820Z,2.60
2023-04-30T12:01:11.742Z,2.70
2023-04-30T12:02:13.602Z,2.80
2023-04-30T12:03:11.796Z,2.60
2023-04-30T12:04:11.849Z,2.40
2023-04-30T12:05:11.706Z,2.60
2023-04-30T12:06:11.751Z,2.30
2023-04-30T12:07:11.694Z,2.40
2023-04-30T12:08:11.724Z,2.40
2023-04-30T12:09:11.677Z,2.50
2023-04-30T12:10:11.659Z,2.30
2023-04-30T12:11:11.674Z,2.30
2023-04-30T12:12:11.664Z,2.40
2023-04-30T12:13:11.723Z,2.50
2023-04-30T12:14:11.654Z,2.40
2023-04-30T12:15:11.622Z,2.20
2023-04-30T12:16:11.617Z,2.30
2023-04-30T12:17:11.589Z,2.40
2023-04-30T12:18:11.654Z,2.60
2023-04-30T12:19:11.619Z,2.60
2023-04-30T12:20:11.543Z,2.50
2023-04-30T12:21:11.574Z,2.70
2023-04-30T12:22:11.531Z,2.70
2023-04-30T12:23:11.549Z,2.60
2023-04-30T12:24:11.513Z,2.60
2023-04-30T12:25:11.507Z,2.40
2023-04-30T12:26:11.477Z,2.30
2023-04-30T12:27:11.489Z,2.50
2023-04-30T12:28:11.476Z,2.40
2023-04-30T12:29:14.321Z,2.50
2023-04-30T12:30:11.458Z,2.50
2023-04-30T12:31:11.430Z,2.50
2023-04-30T12:32:11.423Z,2.40
2023-04-30T12:33:11.505Z,2.50
2023-04-30T12:34:11.406Z,2.40
2023-04-30T12:35:11.383Z,2.50
2023-04-30T12:36:11.387Z,2.20
2023-04-30T12:37:11.377Z,2.60
2023-04-30T12:38:11.372Z,2.00
2023-04-30T12:39:11.360Z,1.70
2023-04-30T12:40:11.355Z,2.00
2023-04-30T12:41:11.350Z,1.80
2023-04-30T12:42:11.303Z,1.70
2023-04-30T12:43:11.386Z,1.80
2023-04-30T12:44:11.358Z,1.90
2023-04-30T12:45:11.310Z,2.20
2023-04-30T12:46:11.665Z,1.90
2023-04-30T12:47:11.553Z,2.10
2023-04-30T12:48:12.617Z,1.90
2023-04-30T12:49:11.309Z,2.10
2023-04-30T12:50:11.405Z,2.00
2023-04-30T12:51:11.236Z,2.00
2023-04-30T12:52:11.260Z,2.20
2023-04-30T12:53:11.223Z,2.20
2023-04-30T12:54:11.348Z,2.00
2023-04-30T12:55:11.258Z,2.10
2023-04-30T12:56:11.224Z,2.20
2023-04-30T12:57:11.206Z,2.10
2023-04-30T12:58:11.253Z,2.50
2023-04-30T12:59:11.163Z,2.40
2023-04-30T13:00:11.215Z,2.10
2023-04-30T13:01:11.272Z,2.10
2023-04-30T13:02:11.147Z,2.00
2023-04-30T13:03:11.253Z,1.90
2023-04-30T13:04:11.140Z,2.10
2023-04-30T13:05:12.031Z,2.10
2023-04-30T13:06:11.191Z,2.00
2023-04-30T13:07:11.093Z,2.20
2023-04-30T13:08:11.197Z,2.20